Accueil
METAR-TAF:

METAR-TAF

Aéroports :

Ouagadougou, Burkina Faso

Aéroport international de Ouagadougou

latitude: 12-21N, longitude: 001-31W, altitude: 316 m

Observation

Le bulletin a été fait il y a 1 heure et 4 minutes, à 21:00 UTC
Vent 5 kt de est
Température 23°C
Humidité 17%
Pression 1014 hPa
Visibilité: 6000 m

METAR: DFFD 222100Z 08005KT 6000 NSC 23/M03 Q1014 NOSIG

Heure: 22:04 (22:04 UTC)

Prévision

Le bulletin a été fait il y a 5 heures et 4 minutes, à 17:00 UTC
Prévision valable du 22 à 18 UTC au 23 à 24 UTC
Vent 10 kt de est
Visibilité: 8000 m
Temporairement
du 22 à 18 UTC au 22 à 20 UTC
Visibilité: 4000 m
poussière généralisée
Temporairement
du 23 à 06 UTC au 23 à 11 UTC
Visibilité: 2500 m
poussière généralisée
Temporairement
du 23 à 17 UTC au 23 à 20 UTC
Visibilité: 4000 m
poussière généralisée

TAF: DFFD 221700Z 2218/2324 10010KT 8000 NSC TEMPO 2218/2220 4000 DU TEMPO 2306/2311 2500 DU TEMPO 2317/2320 4000 DU

Observations et prévisions météorologiques de plus de 4000 aéroports (messages METAR et TAF).

Les stations disponibles sont représentées par des disques jaunes et rouges sur la carte.

Passer la souris dessus pour voir le nom de la station.

Cliquer dessus pour voir les observations et prévisions météorologiques.

Pour changer de carte: cliquez sur les boutons verts avec une croix noire pour zoomer, sur le bouton vert avec un tiret pour effectuer un zoom arrière, ou sur les flèches vertes pour les cartes adjacentes.


METAR-TAF: